Time;durP1;ratioP1;P1;durP2;ratioP2;P2;SDS_P1;SDS_P2;PMS_P1;PMS_P2;Temp;Humidity;BMP_temperature;BMP_pressure;BME280_temperature;BME280_humidity;BME280_pressure;Samples;Min_cycle;Max_cycle;Signal;HPM_P1;HPM_P2
2023/05/11 00:01:06;;;;;;;17.85;7.82;;;12.00;99.90;;;;;;4992957;28;20390;-48
2023/05/11 00:03:32;;;;;;;17.17;8.40;;;12.00;99.90;;;;;;4992834;28;20039;-48
2023/05/11 00:05:59;;;;;;;21.73;9.93;;;12.00;99.90;;;;;;4993077;28;20547;-48
2023/05/11 00:08:25;;;;;;;23.50;11.80;;;12.10;99.90;;;;;;4992980;28;20061;-50
2023/05/11 00:10:50;;;;;;;24.13;11.77;;;12.10;99.90;;;;;;4992900;28;20038;-48
2023/05/11 00:13:16;;;;;;;23.15;11.35;;;12.20;99.90;;;;;;4992726;28;20109;-49
2023/05/11 00:15:42;;;;;;;25.55;12.85;;;12.20;99.90;;;;;;4992909;28;20034;-50
2023/05/11 00:18:08;;;;;;;27.15;12.18;;;12.30;99.90;;;;;;4992904;28;20033;-50
2023/05/11 00:20:34;;;;;;;29.02;13.10;;;12.30;99.90;;;;;;4992695;28;20058;-50
2023/05/11 00:23:00;;;;;;;26.90;13.02;;;12.20;99.90;;;;;;4992525;28;20032;-50
2023/05/11 00:25:25;;;;;;;22.90;11.07;;;12.20;99.90;;;;;;4992831;28;20478;-50
2023/05/11 00:27:51;;;;;;;25.85;12.32;;;12.20;99.90;;;;;;4992764;28;20022;-49
2023/05/11 00:30:17;;;;;;;26.42;11.95;;;12.30;99.90;;;;;;4992419;28;20054;-48
2023/05/11 00:32:44;;;;;;;24.27;12.25;;;12.30;99.90;;;;;;4991131;28;20026;-49
2023/05/11 00:35:10;;;;;;;21.77;10.65;;;12.30;99.90;;;;;;4992673;28;20475;-51
2023/05/11 00:37:39;;;;;;;22.65;10.90;;;12.30;99.90;;;;;;4991165;28;20054;-50
2023/05/11 00:40:05;;;;;;;;;;;12.20;99.90;;;;;;4991558;28;20030;-53
2023/05/11 00:42:32;;;;;;;19.30;8.95;;;12.20;99.90;;;;;;4991041;28;20290;-50
2023/05/11 00:44:58;;;;;;;20.30;9.68;;;12.10;99.90;;;;;;4991080;28;20483;-48
2023/05/11 00:47:24;;;;;;;19.35;9.45;;;12.10;99.90;;;;;;4991110;28;20034;-50
2023/05/11 00:49:52;;;;;;;19.00;9.52;;;12.10;99.90;;;;;;4991022;28;20030;-52
2023/05/11 00:52:19;;;;;;;22.65;10.50;;;12.20;99.90;;;;;;4991687;28;20038;-53
2023/05/11 00:54:46;;;;;;;21.33;9.15;;;12.20;99.90;;;;;;4990911;28;20034;-50
2023/05/11 00:57:13;;;;;;;17.48;8.68;;;12.20;99.90;;;;;;4990921;28;20369;-49
2023/05/11 00:59:39;;;;;;;21.77;10.43;;;12.20;99.90;;;;;;4990826;28;20109;-49
2023/05/11 01:02:05;;;;;;;22.90;10.70;;;12.30;99.90;;;;;;4991646;28;20176;-49
2023/05/11 01:04:31;;;;;;;22.20;10.30;;;12.30;99.90;;;;;;4990795;28;20549;-48
2023/05/11 01:07:19;;;;;;;22.92;11.00;;;12.30;99.90;;;;;;4991823;28;20038;-48
2023/05/11 01:10:13;;;;;;;23.80;11.45;;;12.40;99.90;;;;;;4991201;28;20547;-49
2023/05/11 01:12:49;;;;;;;23.88;11.13;;;12.40;99.90;;;;;;4990367;28;20073;-48
2023/05/11 01:15:56;;;;;;;25.40;11.68;;;12.40;99.90;;;;;;4989949;28;20558;-48
2023/05/11 01:18:23;;;;;;;;;;;12.40;99.90;;;;;;4954341;28;20114;-49
2023/05/11 01:20:54;;;;;;;22.92;12.07;;;12.40;99.90;;;;;;4982269;28;20425;-48
2023/05/11 01:23:42;;;;;;;29.92;13.27;;;12.50;99.90;;;;;;4990202;28;20027;-49
2023/05/11 01:26:17;;;;;;;;;;;12.50;99.90;;;;;;4992345;28;20498;-48
2023/05/11 01:29:21;;;;;;;25.52;11.90;;;12.50;99.90;;;;;;4991593;28;19916;-50
2023/05/11 01:31:48;;;;;;;26.35;12.55;;;12.50;99.90;;;;;;4989802;28;20034;-49
2023/05/11 01:34:20;;;;;;;27.15;11.63;;;12.50;99.90;;;;;;4991501;28;20038;-49
2023/05/11 01:37:22;;;;;;;28.70;13.82;;;12.50;99.90;;;;;;4990668;28;20558;-49
2023/05/11 01:39:53;;;;;;;27.55;13.25;;;12.60;99.90;;;;;;4988478;28;20129;-49
2023/05/11 01:42:35;;;;;;;27.02;13.00;;;12.50;99.90;;;;;;4989528;28;20037;-49
2023/05/11 01:45:02;;;;;;;29.58;13.52;;;12.50;99.90;;;;;;4990252;28;20064;-50
2023/05/11 01:47:29;;;;;;;30.17;13.95;;;12.60;99.90;;;;;;4991547;28;20034;-51
2023/05/11 01:49:56;;;;;;;28.42;12.75;;;12.60;99.90;;;;;;4990154;28;20035;-49
2023/05/11 01:52:24;;;;;;;24.73;12.18;;;12.60;99.90;;;;;;4990947;28;20375;-49
2023/05/11 01:54:52;;;;;;;24.15;12.15;;;12.60;99.90;;;;;;4973768;28;20034;-50
2023/05/11 01:57:20;;;;;;;23.52;11.63;;;12.60;99.90;;;;;;4989894;28;20380;-50
2023/05/11 01:59:48;;;;;;;25.20;12.20;;;12.50;99.90;;;;;;4990037;28;20237;-49
2023/05/11 02:02:15;;;;;;;24.08;11.48;;;12.50;99.90;;;;;;4990947;28;20113;-49
2023/05/11 02:07:23;;;;;;;21.60;11.13;;;12.50;99.90;;;;;;4981555;28;20055;-48
2023/05/11 02:09:52;;;;;;;22.42;10.98;;;12.50;99.90;;;;;;4984045;28;20038;-49
2023/05/11 02:12:19;;;;;;;20.63;10.18;;;12.50;99.90;;;;;;4952673;28;20031;-51
2023/05/11 02:14:47;;;;;;;21.00;10.55;;;12.50;99.90;;;;;;4951591;28;20057;-49
2023/05/11 02:17:15;;;;;;;21.55;10.48;;;12.50;99.90;;;;;;4953060;28;20110;-50
2023/05/11 02:19:43;;;;;;;21.50;10.27;;;12.50;99.90;;;;;;4967770;28;20031;-50
2023/05/11 02:22:10;;;;;;;21.13;10.27;;;12.40;99.90;;;;;;4967186;28;20062;-51
2023/05/11 02:24:36;;;;;;;22.60;11.18;;;12.40;99.90;;;;;;4953726;28;20526;-51
2023/05/11 02:27:02;;;;;;;22.65;10.93;;;12.40;99.90;;;;;;4971439;28;20063;-51
2023/05/11 02:29:28;;;;;;;21.75;10.52;;;12.30;99.90;;;;;;4956808;28;20514;-48
2023/05/11 02:32:00;;;;;;;21.10;10.32;;;12.30;99.90;;;;;;4956300;28;20031;-52
2023/05/11 02:34:28;;;;;;;22.95;9.70;;;12.30;99.90;;;;;;4956670;28;20039;-49
2023/05/11 02:37:19;;;;;;;21.98;10.35;;;12.30;99.90;;;;;;4956671;28;20027;-53
2023/05/11 02:39:51;;;;;;;20.00;9.65;;;12.30;99.90;;;;;;4956772;28;20039;-50
2023/05/11 02:42:22;;;;;;;23.80;11.10;;;12.30;99.90;;;;;;4970892;28;20424;-50
2023/05/11 02:45:04;;;;;;;23.45;10.73;;;12.30;99.90;;;;;;4971230;28;20097;-49
2023/05/11 02:47:38;;;;;;;25.35;11.32;;;12.30;99.90;;;;;;4955065;28;20035;-53
2023/05/11 02:50:06;;;;;;;23.95;11.23;;;12.30;99.90;;;;;;4955026;28;20039;-50
2023/05/11 02:52:43;;;;;;;21.80;10.95;;;12.30;99.90;;;;;;4970832;28;20031;-51
2023/05/11 02:55:10;;;;;;;21.40;10.25;;;12.30;99.90;;;;;;4955038;28;20660;-52
2023/05/11 02:57:37;;;;;;;21.02;9.95;;;12.30;99.90;;;;;;4954835;28;20031;-49
2023/05/11 03:00:07;;;;;;;20.63;9.88;;;12.30;99.90;;;;;;4970782;28;20024;-54
2023/05/11 03:02:33;;;;;;;22.45;10.20;;;12.30;99.90;;;;;;4954598;29;20039;-50
2023/05/11 03:04:59;;;;;;;21.75;10.27;;;12.30;99.90;;;;;;4970929;28;20115;-51
2023/05/11 03:07:25;;;;;;;21.23;10.38;;;12.20;99.90;;;;;;4970886;28;20035;-49
2023/05/11 03:09:51;;;;;;;26.20;12.38;;;12.20;99.90;;;;;;4970867;28;20035;-49
2023/05/11 03:12:17;;;;;;;23.80;11.05;;;12.20;99.90;;;;;;4954244;29;20042;-53
2023/05/11 03:14:43;;;;;;;25.15;10.90;;;12.10;99.90;;;;;;4970737;28;20368;-50
2023/05/11 03:17:12;;;;;;;26.08;11.80;;;12.10;99.90;;;;;;4970917;28;20078;-49
2023/05/11 03:19:40;;;;;;;23.63;11.47;;;12.10;99.90;;;;;;4956132;28;20031;-52
2023/05/11 03:22:08;;;;;;;26.92;12.13;;;12.00;99.90;;;;;;4954412;28;20031;-49
2023/05/11 03:24:34;;;;;;;34.85;12.90;;;12.00;99.90;;;;;;4956047;28;20476;-49
2023/05/11 03:27:02;;;;;;;27.35;12.88;;;12.00;99.90;;;;;;4954910;28;20424;-52
2023/05/11 03:29:30;;;;;;;29.38;14.27;;;12.00;99.90;;;;;;4954856;29;20031;-49
2023/05/11 03:31:56;;;;;;;32.00;12.93;;;12.00;99.90;;;;;;4955392;28;20104;-49
2023/05/11 03:34:22;;;;;;;29.25;12.82;;;12.00;99.90;;;;;;4954450;28;20067;-50
2023/05/11 03:36:50;;;;;;;31.10;13.23;;;12.00;99.90;;;;;;4953718;28;20066;-49
2023/05/11 03:39:16;;;;;;;35.38;13.10;;;12.00;99.90;;;;;;4954222;28;20027;-50
2023/05/11 03:41:48;;;;;;;31.40;14.02;;;12.00;99.90;;;;;;4953814;28;20399;-53
2023/05/11 03:44:15;;;;;;;29.23;12.43;;;12.00;99.90;;;;;;4970363;28;20126;-52
2023/05/11 03:46:44;;;;;;;29.73;13.00;;;12.00;99.90;;;;;;4955782;28;20042;-50
2023/05/11 03:49:11;;;;;;;29.55;13.35;;;12.10;99.90;;;;;;4970260;28;20154;-50
2023/05/11 03:51:38;;;;;;;29.63;13.95;;;12.10;99.90;;;;;;4954981;28;20122;-48
2023/05/11 03:54:05;;;;;;;32.72;12.43;;;12.20;99.90;;;;;;4969808;28;20035;-49
2023/05/11 03:56:35;;;;;;;31.08;13.15;;;12.20;99.90;;;;;;4955232;28;20066;-47
2023/05/11 03:59:02;;;;;;;29.90;13.32;;;12.10;99.90;;;;;;4969871;28;20488;-49
2023/05/11 04:01:32;;;;;;;27.75;12.85;;;12.10;99.90;;;;;;4969365;28;20396;-48
2023/05/11 04:03:58;;;;;;;30.52;13.32;;;12.10;99.90;;;;;;4953392;28;20028;-48
2023/05/11 04:06:23;;;;;;;33.53;13.70;;;12.10;99.90;;;;;;4954294;28;20042;-48
2023/05/11 04:08:57;;;;;;;30.13;13.50;;;12.10;99.90;;;;;;4953189;29;20086;-48
2023/05/11 04:11:23;;;;;;;30.92;14.38;;;12.20;99.90;;;;;;4969078;28;20035;-48
2023/05/11 04:13:49;;;;;;;31.05;14.93;;;12.20;99.90;;;;;;4954952;28;20090;-51
2023/05/11 04:16:14;;;;;;;30.63;13.80;;;12.20;99.90;;;;;;4954939;28;20078;-49
2023/05/11 04:18:40;;;;;;;33.03;14.07;;;12.20;99.90;;;;;;4953531;28;20078;-52
2023/05/11 04:21:06;;;;;;;32.17;14.15;;;12.20;99.90;;;;;;4953039;28;20383;-52
2023/05/11 04:23:31;;;;;;;30.15;13.40;;;12.20;99.90;;;;;;4954579;28;20039;-48
2023/05/11 04:25:57;;;;;;;34.47;14.35;;;12.30;99.90;;;;;;4953258;29;20031;-46
2023/05/11 04:28:26;;;;;;;33.28;14.60;;;12.30;99.90;;;;;;4954589;29;20106;-50
2023/05/11 04:30:56;;;;;;;31.73;14.18;;;12.30;99.90;;;;;;4952441;29;20031;-51
2023/05/11 04:33:22;;;;;;;30.40;12.48;;;12.30;99.90;;;;;;4968401;28;20125;-52
2023/05/11 04:35:52;;;;;;;32.95;13.65;;;12.30;99.90;;;;;;4968617;28;20513;-49
2023/05/11 04:38:20;;;;;;;35.25;14.02;;;12.30;99.90;;;;;;4968541;28;20408;-50
2023/05/11 04:40:46;;;;;;;37.38;14.70;;;12.30;99.90;;;;;;4953577;28;20035;-50
2023/05/11 04:43:16;;;;;;;36.05;14.13;;;12.30;99.90;;;;;;4952214;28;20081;-49
2023/05/11 04:45:49;;;;;;;38.85;16.38;;;12.30;99.90;;;;;;4952399;28;20039;-50
2023/05/11 04:48:19;;;;;;;36.00;15.18;;;12.30;99.90;;;;;;4952378;28;20027;-49
2023/05/11 04:50:46;;;;;;;35.08;15.15;;;12.30;99.90;;;;;;4952086;28;20035;-51
2023/05/11 04:53:13;;;;;;;34.50;14.65;;;12.30;99.90;;;;;;4967964;28;20030;-50
2023/05/11 04:55:39;;;;;;;32.78;13.93;;;12.30;99.90;;;;;;4953579;28;20396;-49
2023/05/11 04:58:05;;;;;;;33.42;14.52;;;12.30;99.90;;;;;;4953969;28;20023;-48
2023/05/11 05:00:32;;;;;;;35.63;15.18;;;12.40;99.90;;;;;;4968024;28;20027;-50
2023/05/11 05:02:57;;;;;;;33.22;14.65;;;12.40;99.90;;;;;;4953169;28;20495;-50
2023/05/11 05:05:23;;;;;;;37.88;15.45;;;12.30;99.90;;;;;;4951899;29;20039;-49
2023/05/11 05:07:49;;;;;;;34.85;14.80;;;12.30;99.90;;;;;;4953499;28;20476;-51
2023/05/11 05:10:15;;;;;;;38.17;15.15;;;12.30;99.90;;;;;;4951698;29;20047;-50
2023/05/11 05:12:41;;;;;;;32.60;14.05;;;12.30;99.90;;;;;;4951725;28;20057;-49
2023/05/11 05:15:08;;;;;;;34.10;13.32;;;12.40;99.90;;;;;;4951646;28;20035;-48
2023/05/11 05:17:34;;;;;;;35.83;14.73;;;12.40;99.90;;;;;;4967872;28;20030;-49
2023/05/11 05:20:00;;;;;;;32.97;14.02;;;12.40;99.90;;;;;;4951648;28;20027;-52
2023/05/11 05:22:26;;;;;;;34.20;14.68;;;12.40;99.90;;;;;;4952845;28;20023;-48
2023/05/11 05:24:52;;;;;;;32.83;13.98;;;12.40;99.90;;;;;;4953069;28;20023;-48
2023/05/11 05:27:17;;;;;;;37.17;14.32;;;12.50;99.90;;;;;;4951416;28;20031;-49
2023/05/11 05:29:44;;;;;;;38.78;16.20;;;12.50;99.90;;;;;;4973294;28;20026;-48
2023/05/11 05:32:09;;;;;;;37.40;14.70;;;12.50;99.90;;;;;;4970536;28;20373;-48
2023/05/11 05:34:35;;;;;;;34.25;14.18;;;12.50;99.90;;;;;;4970809;28;20030;-49
2023/05/11 05:37:01;;;;;;;38.33;14.95;;;12.50;99.90;;;;;;4972043;28;20027;-49
2023/05/11 05:39:27;;;;;;;37.90;14.43;;;12.60;99.90;;;;;;4970883;28;20506;-52
2023/05/11 05:41:53;;;;;;;35.08;14.52;;;12.60;99.90;;;;;;4970382;28;20023;-48
2023/05/11 05:44:19;;;;;;;35.67;13.77;;;12.60;99.90;;;;;;4970638;28;20117;-49
2023/05/11 05:46:44;;;;;;;34.92;14.02;;;12.70;99.90;;;;;;4970725;28;20058;-49
2023/05/11 05:49:12;;;;;;;33.08;14.50;;;12.70;99.90;;;;;;4970746;28;20171;-49
2023/05/11 05:51:38;;;;;;;32.13;13.45;;;12.70;99.90;;;;;;4970218;28;20125;-53
2023/05/11 05:54:04;;;;;;;29.52;13.07;;;12.70;99.90;;;;;;4970573;28;20402;-49
2023/05/11 05:56:31;;;;;;;33.08;14.75;;;12.80;99.90;;;;;;4970630;28;20031;-50
2023/05/11 05:58:57;;;;;;;29.45;13.63;;;12.90;99.90;;;;;;4971931;28;20027;-51
2023/05/11 06:01:22;;;;;;;37.22;15.25;;;13.00;99.90;;;;;;4976402;28;20030;-49
2023/05/11 06:03:50;;;;;;;32.92;15.48;;;13.10;99.90;;;;;;4978327;28;20580;-49
2023/05/11 06:06:16;;;;;;;33.72;14.85;;;13.20;99.90;;;;;;4976920;28;20034;-49
2023/05/11 06:08:42;;;;;;;31.60;13.60;;;13.20;99.90;;;;;;4977005;28;20045;-48
2023/05/11 06:11:08;;;;;;;30.60;14.07;;;13.30;99.90;;;;;;4976633;28;20041;-48
2023/05/11 06:13:34;;;;;;;31.42;13.88;;;13.30;99.90;;;;;;4993044;28;20034;-49
2023/05/11 06:16:00;;;;;;;27.55;12.88;;;13.30;99.90;;;;;;4976954;28;20033;-48
2023/05/11 06:18:31;;;;;;;31.05;13.63;;;13.30;99.90;;;;;;4977045;28;20221;-50
2023/05/11 06:20:58;;;;;;;29.15;13.50;;;13.30;99.90;;;;;;4992786;28;20053;-48
2023/05/11 06:23:26;;;;;;;31.42;12.85;;;13.40;99.90;;;;;;4976750;28;20019;-49
2023/05/11 06:25:52;;;;;;;28.00;12.63;;;13.50;99.90;;;;;;4976743;28;20031;-50
2023/05/11 06:28:21;;;;;;;28.88;12.40;;;13.40;99.90;;;;;;4976957;28;20427;-51
2023/05/11 06:30:47;;;;;;;25.17;12.30;;;13.40;99.90;;;;;;4976557;28;20031;-49
2023/05/11 06:33:13;;;;;;;31.10;13.73;;;13.50;99.90;;;;;;4977855;28;20522;-49
2023/05/11 06:35:39;;;;;;;30.80;12.45;;;13.60;99.90;;;;;;4976753;28;20030;-48
2023/05/11 06:38:08;;;;;;;26.90;12.70;;;13.70;99.90;;;;;;4976857;28;20023;-48
2023/05/11 06:40:35;;;;;;;28.42;13.02;;;13.70;99.90;;;;;;4976381;28;20121;-49
2023/05/11 06:43:01;;;;;;;31.33;13.57;;;13.70;99.90;;;;;;4976524;28;20109;-50
2023/05/11 06:45:44;;;;;;;29.73;13.45;;;13.80;99.90;;;;;;4976804;28;20151;-49
2023/05/11 06:48:10;;;;;;;;;;;13.80;99.90;;;;;;4977301;28;20038;-53
2023/05/11 06:50:35;;;;;;;27.98;12.13;;;13.90;99.90;;;;;;4977770;28;20177;-49
2023/05/11 06:53:01;;;;;;;29.80;12.73;;;13.90;99.90;;;;;;4977722;28;20034;-48
2023/05/11 06:55:28;;;;;;;31.63;13.30;;;13.90;99.90;;;;;;4976597;28;20027;-48
2023/05/11 06:57:54;;;;;;;34.35;15.18;;;13.90;99.90;;;;;;4977946;28;20046;-48
2023/05/11 07:00:20;;;;;;;30.90;13.43;;;14.00;99.90;;;;;;4977797;28;20101;-53
2023/05/11 07:02:45;;;;;;;29.50;12.88;;;13.90;99.90;;;;;;4977748;28;20019;-48
2023/05/11 07:05:11;;;;;;;30.27;13.52;;;14.00;99.90;;;;;;4977952;28;20484;-48
2023/05/11 07:07:37;;;;;;;31.13;12.63;;;14.10;99.90;;;;;;4977960;28;20068;-49
2023/05/11 07:10:04;;;;;;;29.35;13.23;;;14.10;99.90;;;;;;4978231;28;20066;-48
2023/05/11 07:12:30;;;;;;;28.75;12.85;;;14.10;99.90;;;;;;4974109;28;20105;-50
2023/05/11 07:14:56;;;;;;;26.60;11.98;;;14.20;99.90;;;;;;4974930;28;20476;-48
2023/05/11 07:17:22;;;;;;;33.10;13.25;;;14.10;99.90;;;;;;4975099;28;20035;-48
2023/05/11 07:19:50;;;;;;;29.40;13.18;;;14.10;99.90;;;;;;4975054;28;20031;-49
2023/05/11 07:22:15;;;;;;;29.80;13.00;;;14.20;99.90;;;;;;4988962;28;20458;-50
2023/05/11 07:24:41;;;;;;;28.50;12.07;;;14.20;99.90;;;;;;4974839;28;20035;-51
2023/05/11 07:27:07;;;;;;;30.83;13.35;;;14.30;99.90;;;;;;4974604;28;20062;-50
2023/05/11 07:29:33;;;;;;;32.15;12.95;;;14.30;99.90;;;;;;4974661;28;20041;-50
2023/05/11 07:31:58;;;;;;;29.20;11.98;;;14.40;99.90;;;;;;4973973;28;20126;-51
2023/05/11 07:34:24;;;;;;;22.65;11.43;;;14.50;99.90;;;;;;4974437;28;20070;-48
2023/05/11 07:36:50;;;;;;;26.30;11.48;;;14.80;99.90;;;;;;4974448;28;20023;-50
2023/05/11 07:39:16;;;;;;;33.35;14.52;;;15.10;99.90;;;;;;4974334;28;20037;-51
2023/05/11 07:41:42;;;;;;;28.58;13.20;;;15.30;99.90;;;;;;4973769;28;20038;-50
2023/05/11 07:44:07;;;;;;;24.70;12.07;;;15.60;99.90;;;;;;4974630;28;20125;-49
2023/05/11 07:46:33;;;;;;;30.23;13.27;;;15.50;99.90;;;;;;4974232;28;20057;-54
2023/05/11 07:48:59;;;;;;;28.23;13.27;;;15.60;99.90;;;;;;4972811;28;20038;-49
2023/05/11 07:51:24;;;;;;;31.20;15.07;;;15.70;99.90;;;;;;4973368;28;20038;-51
2023/05/11 07:53:50;;;;;;;25.92;13.55;;;15.80;99.90;;;;;;4974140;28;20043;-49
2023/05/11 07:56:16;;;;;;;27.45;14.27;;;15.90;99.90;;;;;;4974161;28;20499;-49
2023/05/11 07:58:42;;;;;;;30.85;13.52;;;15.90;99.90;;;;;;4973810;28;20031;-48
2023/05/11 08:01:08;;;;;;;23.98;11.90;;;15.90;99.90;;;;;;4973530;28;20027;-51
2023/05/11 08:03:34;;;;;;;20.48;10.90;;;16.10;99.90;;;;;;4973619;28;20031;-48
2023/05/11 08:05:59;;;;;;;20.15;10.43;;;15.90;99.90;;;;;;4973728;28;20472;-49
2023/05/11 08:08:25;;;;;;;24.83;11.90;;;15.90;99.90;;;;;;4973789;28;20034;-51
2023/05/11 08:10:51;;;;;;;26.50;12.57;;;15.90;99.90;;;;;;4973540;28;20078;-50
2023/05/11 08:13:17;;;;;;;24.98;11.68;;;15.70;99.90;;;;;;4973418;28;20058;-50
2023/05/11 08:15:43;;;;;;;26.10;11.77;;;15.70;99.90;;;;;;4973467;28;20407;-48
2023/05/11 08:18:10;;;;;;;20.33;10.43;;;15.80;99.90;;;;;;4973440;28;20034;-50
2023/05/11 08:20:35;;;;;;;23.38;10.55;;;16.00;99.90;;;;;;4973034;28;20062;-49
2023/05/11 08:23:01;;;;;;;23.88;10.63;;;16.00;99.90;;;;;;4973060;28;20077;-48
2023/05/11 08:25:27;;;;;;;23.63;10.98;;;16.10;99.90;;;;;;4973296;28;20194;-52
2023/05/11 08:27:53;;;;;;;21.13;10.43;;;16.10;99.90;;;;;;4973282;28;20047;-51
2023/05/11 08:30:19;;;;;;;21.30;10.45;;;16.10;99.90;;;;;;4972786;28;20035;-50
2023/05/11 08:32:44;;;;;;;25.05;11.55;;;16.10;99.90;;;;;;4973090;28;20073;-50
2023/05/11 08:35:12;;;;;;;21.15;11.20;;;16.10;99.90;;;;;;4972814;28;20039;-51
2023/05/11 08:37:37;;;;;;;23.77;10.75;;;16.20;99.90;;;;;;4973171;28;20031;-50
2023/05/11 08:40:03;;;;;;;17.33;8.90;;;16.20;99.90;;;;;;4972967;28;20388;-48
2023/05/11 08:42:34;;;;;;;17.25;8.82;;;16.30;99.90;;;;;;4972778;28;20037;-48
2023/05/11 08:45:01;;;;;;;18.60;9.52;;;16.40;99.90;;;;;;4973061;28;20046;-52
2023/05/11 08:47:27;;;;;;;19.33;9.35;;;16.50;99.90;;;;;;4972820;28;20062;-50
2023/05/11 08:49:53;;;;;;;16.52;8.55;;;16.50;99.90;;;;;;4972977;28;20089;-50
2023/05/11 08:52:19;;;;;;;16.73;9.13;;;16.40;99.90;;;;;;4972493;28;20031;-48
2023/05/11 08:54:46;;;;;;;15.93;8.88;;;16.30;99.90;;;;;;4972745;28;20031;-49
2023/05/11 08:57:13;;;;;;;22.85;11.77;;;16.30;99.90;;;;;;4972761;28;20606;-49
2023/05/11 08:59:43;;;;;;;31.48;16.10;;;16.30;99.90;;;;;;4972714;28;20019;-48
2023/05/11 09:02:15;;;;;;;24.50;11.98;;;16.20;99.90;;;;;;4972043;28;20089;-49
2023/05/11 09:04:41;;;;;;;21.00;10.63;;;16.20;99.90;;;;;;4972657;28;20031;-52
2023/05/11 09:07:10;;;;;;;22.25;11.15;;;16.00;99.90;;;;;;4972744;28;20050;-53
2023/05/11 09:09:36;;;;;;;26.00;10.73;;;15.70;99.90;;;;;;4972521;28;20110;-50
2023/05/11 09:12:02;;;;;;;23.85;11.00;;;15.50;99.90;;;;;;4972101;28;20470;-50
2023/05/11 09:14:28;;;;;;;21.90;11.15;;;15.50;99.90;;;;;;4972487;28;20443;-49
2023/05/11 09:16:54;;;;;;;22.70;11.43;;;15.30;99.90;;;;;;4972241;28;20022;-50
2023/05/11 09:19:20;;;;;;;22.38;10.88;;;15.30;99.90;;;;;;4972660;28;20037;-49
2023/05/11 09:21:46;;;;;;;22.48;11.18;;;15.20;99.90;;;;;;4972079;28;20031;-51
2023/05/11 09:24:12;;;;;;;24.77;10.70;;;15.20;99.90;;;;;;4972522;28;20396;-53
2023/05/11 09:26:38;;;;;;;24.13;10.45;;;15.10;99.90;;;;;;4972456;28;20046;-49
2023/05/11 09:29:04;;;;;;;23.45;11.07;;;15.10;99.90;;;;;;4972535;28;20458;-49
2023/05/11 09:31:38;;;;;;;22.35;10.55;;;15.10;99.90;;;;;;4971565;28;20034;-52
2023/05/11 09:34:22;;;;;;;23.88;11.05;;;15.10;99.90;;;;;;4971732;28;20093;-54
2023/05/11 09:36:53;;;;;;;21.48;11.10;;;15.10;99.90;;;;;;4971993;28;20476;-48
2023/05/11 09:39:33;;;;;;;24.52;12.40;;;15.10;99.90;;;;;;4972259;28;20097;-53
2023/05/11 09:42:17;;;;;;;31.60;13.88;;;14.90;99.90;;;;;;4971681;28;20151;-51
2023/05/11 09:44:44;;;;;;;22.63;10.85;;;15.10;99.90;;;;;;4972063;28;20106;-50
2023/05/11 09:47:15;;;;;;;23.83;10.80;;;15.20;99.90;;;;;;4972228;28;20157;-49
2023/05/11 09:49:42;;;;;;;24.23;10.80;;;15.30;99.90;;;;;;4972052;28;20113;-50
2023/05/11 09:52:19;;;;;;;19.52;8.98;;;15.30;99.90;;;;;;4971401;28;20128;-50
2023/05/11 09:54:51;;;;;;;20.27;10.38;;;15.40;99.90;;;;;;4971854;28;20035;-50
2023/05/11 09:57:28;;;;;;;20.65;10.73;;;15.50;99.90;;;;;;4972189;28;20045;-50
2023/05/11 09:59:55;;;;;;;24.58;11.15;;;15.70;99.90;;;;;;4972147;28;20058;-52
2023/05/11 10:02:30;;;;;;;23.25;12.15;;;15.70;99.90;;;;;;4971533;28;20031;-54
2023/05/11 10:04:57;;;;;;;20.48;10.27;;;15.80;99.90;;;;;;4971931;28;20399;-49
2023/05/11 10:07:24;;;;;;;21.02;10.63;;;16.00;99.90;;;;;;4972203;28;20043;-52
2023/05/11 10:09:53;;;;;;;20.90;10.43;;;16.00;99.90;;;;;;4971970;28;20388;-49
2023/05/11 10:12:21;;;;;;;22.38;10.80;;;16.10;99.90;;;;;;4971849;28;20045;-51
2023/05/11 10:14:50;;;;;;;21.23;10.98;;;16.20;99.90;;;;;;4972100;28;20052;-52
2023/05/11 10:17:17;;;;;;;18.25;10.88;;;16.20;99.90;;;;;;4972358;28;20093;-51
2023/05/11 10:19:42;;;;;;;23.08;10.88;;;16.20;99.90;;;;;;4972010;28;20058;-53
2023/05/11 10:22:10;;;;;;;23.70;11.75;;;16.30;99.90;;;;;;4971462;28;20051;-49
2023/05/11 10:24:36;;;;;;;23.17;11.35;;;16.30;99.90;;;;;;4971879;28;20026;-49
2023/05/11 10:27:02;;;;;;;22.48;11.70;;;16.40;99.90;;;;;;4971812;28;20074;-50
2023/05/11 10:29:29;;;;;;;21.15;10.70;;;16.50;99.90;;;;;;4971771;28;20455;-49
2023/05/11 10:31:56;;;;;;;19.52;10.48;;;16.60;99.90;;;;;;4971090;28;20542;-51
2023/05/11 10:34:23;;;;;;;27.65;12.35;;;16.70;99.90;;;;;;4971717;28;20035;-51
2023/05/11 10:36:51;;;;;;;24.88;13.10;;;16.80;99.90;;;;;;4971478;28;20040;-50
2023/05/11 10:39:17;;;;;;;24.27;12.17;;;17.00;99.90;;;;;;4971692;28;20062;-51
2023/05/11 10:42:10;;;;;;;25.48;12.65;;;16.90;99.90;;;;;;4971163;28;20063;-51
2023/05/11 10:44:50;;;;;;;20.63;10.70;;;17.00;99.90;;;;;;4971606;28;20031;-49
2023/05/11 10:47:26;;;;;;;23.20;11.35;;;17.20;99.90;;;;;;4974425;28;20026;-49
2023/05/11 10:50:24;;;;;;;26.55;13.00;;;17.30;99.90;;;;;;4975191;28;20046;-53
2023/05/11 10:53:08;;;;;;;22.48;10.93;;;17.10;99.90;;;;;;4989767;28;20046;-50
2023/05/11 10:55:55;;;;;;;23.08;11.93;;;17.10;99.90;;;;;;4974973;28;20510;-49
2023/05/11 10:58:42;;;;;;;22.60;11.50;;;17.20;99.90;;;;;;4975117;28;20114;-53
2023/05/11 11:01:36;;;;;;;23.30;11.95;;;17.30;99.90;;;;;;4974629;28;20545;-50
2023/05/11 11:04:07;;;;;;;21.25;11.23;;;17.20;99.90;;;;;;4974858;28;20041;-48
2023/05/11 11:06:34;;;;;;;33.25;15.48;;;17.20;99.90;;;;;;4974683;28;20101;-48
2023/05/11 11:09:20;;;;;;;28.30;13.88;;;17.10;99.90;;;;;;4975086;28;20446;-48
2023/05/11 11:11:49;;;;;;;24.48;12.15;;;17.00;99.90;;;;;;4974371;28;20027;-52
2023/05/11 11:14:15;;;;;;;;;;;17.20;99.90;;;;;;4975134;28;20030;-50
2023/05/11 11:17:21;;;;;;;20.63;10.32;;;17.20;99.90;;;;;;4974643;28;19920;-52
2023/05/11 11:19:46;;;;;;;19.90;10.25;;;17.10;99.90;;;;;;4974377;28;20039;-49
2023/05/11 11:22:34;;;;;;;19.70;10.55;;;17.00;99.90;;;;;;4974285;28;20096;-49
2023/05/11 11:25:07;;;;;;;19.23;9.87;;;17.20;99.90;;;;;;4974563;28;20447;-49
2023/05/11 11:27:39;;;;;;;18.58;10.48;;;17.20;99.90;;;;;;4989420;28;20035;-47
2023/05/11 11:30:28;;;;;;;20.17;10.45;;;17.20;99.90;;;;;;4973991;28;20472;-48
2023/05/11 11:33:15;;;;;;;23.08;11.50;;;17.20;99.90;;;;;;4974124;28;20118;-50
2023/05/11 11:35:40;;;;;;;20.13;9.98;;;17.20;99.90;;;;;;4974173;28;20365;-51
2023/05/11 11:38:10;;;;;;;24.08;11.32;;;17.30;99.90;;;;;;4974221;28;20045;-50
2023/05/11 11:40:53;;;;;;;27.92;12.60;;;17.50;99.90;;;;;;4973865;28;20093;-50
2023/05/11 11:43:24;;;;;;;36.10;12.93;;;17.60;99.90;;;;;;4972672;28;20097;-50
2023/05/11 11:45:55;;;;;;;25.25;11.57;;;17.70;99.90;;;;;;4974092;28;20035;-50
2023/05/11 11:48:22;;;;;;;24.13;12.02;;;17.70;99.90;;;;;;4974225;28;20304;-48
2023/05/11 11:50:59;;;;;;;23.08;12.27;;;17.50;99.90;;;;;;4973723;28;20065;-49
2023/05/11 11:53:36;;;;;;;21.02;11.63;;;17.50;99.90;;;;;;4973795;28;20413;-50
2023/05/11 11:56:06;;;;;;;25.08;12.43;;;17.50;99.90;;;;;;4974008;28;20039;-53
2023/05/11 11:58:41;;;;;;;26.48;12.70;;;17.40;99.90;;;;;;4973151;28;20115;-49
2023/05/11 12:01:10;;;;;;;21.17;12.05;;;17.20;99.90;;;;;;4972254;28;20484;-48
2023/05/11 12:03:37;;;;;;;26.98;14.07;;;17.20;99.90;;;;;;4973767;28;20068;-49
2023/05/11 12:06:07;;;;;;;24.45;12.32;;;17.00;99.90;;;;;;4973811;28;20039;-50
2023/05/11 12:08:34;;;;;;;23.17;11.25;;;16.80;99.90;;;;;;4973795;28;20107;-50
2023/05/11 12:11:01;;;;;;;22.38;11.65;;;17.00;99.90;;;;;;4973589;28;20476;-52
2023/05/11 12:13:28;;;;;;;26.45;13.07;;;16.90;99.90;;;;;;4973350;28;20027;-48
2023/05/11 12:16:14;;;;;;;27.98;14.50;;;16.70;99.90;;;;;;4973567;28;20552;-52
2023/05/11 12:18:41;;;;;;;25.75;13.43;;;16.70;99.90;;;;;;4973607;28;20047;-51
2023/05/11 12:21:26;;;;;;;26.15;13.20;;;16.60;99.90;;;;;;4973450;28;20118;-52
2023/05/11 12:23:59;;;;;;;27.50;13.27;;;16.60;99.90;;;;;;4973430;28;20038;-48
2023/05/11 12:26:27;;;;;;;25.05;12.73;;;16.50;99.90;;;;;;4973389;28;20045;-48
2023/05/11 12:29:06;;;;;;;24.38;12.45;;;16.40;99.90;;;;;;4973402;28;20041;-49
2023/05/11 12:31:43;;;;;;;27.83;13.02;;;16.30;99.90;;;;;;4972925;28;20041;-48
2023/05/11 12:34:20;;;;;;;23.73;12.27;;;16.30;99.90;;;;;;4973432;28;20472;-51
2023/05/11 12:36:48;;;;;;;22.92;11.70;;;16.20;99.90;;;;;;4988344;28;20026;-50
2023/05/11 12:39:19;;;;;;;24.95;12.00;;;16.10;99.90;;;;;;4973156;28;20471;-57
2023/05/11 12:41:46;;;;;;;20.15;11.02;;;16.00;99.90;;;;;;4972705;28;20031;-50